createdAt,value
2023-04-21T00:03:00.725Z,100153.66
2023-04-21T00:06:13.156Z,100154.86
2023-04-21T00:09:05.602Z,100156.56
2023-04-21T00:12:33.780Z,100151.57
2023-04-21T00:15:43.847Z,100155.24
2023-04-21T00:18:23.919Z,100152.06
2023-04-21T00:21:36.835Z,100151.31
2023-04-21T00:25:01.994Z,100149.84
2023-04-21T00:28:14.204Z,100154.21
2023-04-21T00:31:42.164Z,100146.48
2023-04-21T00:34:12.231Z,100147.02
2023-04-21T00:37:35.559Z,100144.69
2023-04-21T00:40:26.420Z,100142.34
2023-04-21T00:43:35.553Z,100143.12
2023-04-21T00:46:43.981Z,100142.75
2023-04-21T00:49:32.870Z,100140.62
2023-04-21T00:52:41.009Z,100142.71
2023-04-21T00:55:50.364Z,100139.73
2023-04-21T00:58:56.257Z,100134.30
2023-04-21T01:02:07.951Z,100135.86
2023-04-21T01:05:17.029Z,100130.17
2023-04-21T01:07:48.347Z,100126.66
2023-04-21T01:11:00.817Z,100127.27
2023-04-21T01:14:17.628Z,100124.69
2023-04-21T01:17:17.126Z,100120.08
2023-04-21T01:20:01.832Z,100116.92
2023-04-21T01:23:06.464Z,100121.61
2023-04-21T01:26:16.982Z,100121.52
2023-04-21T01:29:45.065Z,100122.00
2023-04-21T01:32:53.561Z,100119.64
2023-04-21T01:36:21.454Z,100119.89
2023-04-21T01:39:30.761Z,100118.83
2023-04-21T01:42:43.420Z,100119.95
2023-04-21T01:45:53.546Z,100118.32
2023-04-21T01:48:43.903Z,100118.13
2023-04-21T01:51:35.394Z,100116.89
2023-04-21T01:54:44.345Z,100117.71
2023-04-21T01:58:08.069Z,100116.65
2023-04-21T02:01:00.083Z,100120.93
2023-04-21T02:04:08.719Z,100119.36
2023-04-21T02:06:58.958Z,100120.55
2023-04-21T02:10:07.465Z,100116.58
2023-04-21T02:12:40.597Z,100120.38
2023-04-21T02:15:59.580Z,100124.02
2023-04-21T02:19:18.193Z,100121.35
2023-04-21T02:22:07.426Z,100123.55
2023-04-21T02:25:17.628Z,100118.56
2023-04-21T02:27:48.485Z,100121.71
2023-04-21T02:30:18.535Z,100123.66
2023-04-21T02:33:11.314Z,100121.75
2023-04-21T02:35:42.135Z,100120.99
2023-04-21T02:38:46.440Z,100120.47
2023-04-21T02:42:14.501Z,100124.80
2023-04-21T02:44:46.785Z,100124.09
2023-04-21T02:47:42.713Z,100129.11
2023-04-21T02:50:31.689Z,100132.64
2023-04-21T02:53:24.103Z,100137.61
2023-04-21T02:56:32.973Z,100132.09
2023-04-21T02:59:40.934Z,100138.88
2023-04-21T03:02:29.849Z,100138.65
2023-04-21T03:05:42.374Z,100138.61
2023-04-21T03:08:50.396Z,100135.75
2023-04-21T03:11:44.035Z,100133.89
2023-04-21T03:14:33.869Z,100132.06
2023-04-21T03:17:25.977Z,100127.77
2023-04-21T03:20:30.091Z,100132.98
2023-04-21T03:23:23.349Z,100136.28
2023-04-21T03:26:12.449Z,100134.98
2023-04-21T03:29:40.514Z,100132.68
2023-04-21T03:33:08.707Z,100137.88
2023-04-21T03:35:59.033Z,100141.92
2023-04-21T03:39:19.749Z,100151.16
2023-04-21T03:42:16.678Z,100151.85
2023-04-21T03:44:44.862Z,100152.56
2023-04-21T03:48:08.963Z,100151.58
2023-04-21T03:51:01.685Z,100153.27
2023-04-21T03:53:53.929Z,100157.36
2023-04-21T03:56:50.505Z,100159.52
2023-04-21T03:59:59.296Z,100161.59
2023-04-21T04:03:27.621Z,100158.07
2023-04-21T04:06:36.490Z,100164.21
2023-04-21T04:09:44.347Z,100169.70
2023-04-21T04:12:35.217Z,100169.17
2023-04-21T04:15:44.339Z,100172.84
2023-04-21T04:18:53.078Z,100174.24
2023-04-21T04:22:20.979Z,100176.51
2023-04-21T04:25:10.229Z,100182.46
2023-04-21T04:28:18.719Z,100186.71
2023-04-21T04:31:06.911Z,100191.14
2023-04-21T04:34:17.165Z,100196.46
2023-04-21T04:37:27.119Z,100195.38
2023-04-21T04:40:17.643Z,100198.73
2023-04-21T04:43:47.286Z,100201.57
2023-04-21T04:46:55.800Z,100205.54
2023-04-21T04:50:04.865Z,100205.84
2023-04-21T04:53:32.698Z,100208.09
2023-04-21T04:57:00.703Z,100210.34
2023-04-21T05:00:08.760Z,100212.49
2023-04-21T05:02:53.754Z,100212.87
2023-04-21T05:06:03.548Z,100214.35
2023-04-21T05:08:32.510Z,100213.73
2023-04-21T05:11:44.370Z,100214.41
2023-04-21T05:14:49.111Z,100213.49
2023-04-21T05:17:21.204Z,100217.47
2023-04-21T05:20:14.095Z,100223.09
2023-04-21T05:23:23.313Z,100218.39
2023-04-21T05:26:51.793Z,100219.25
2023-04-21T05:30:15.925Z,100214.87
2023-04-21T05:33:08.660Z,100214.29
2023-04-21T05:36:16.766Z,100212.88
2023-04-21T05:39:44.737Z,100210.67
2023-04-21T05:42:40.481Z,100209.11
2023-04-21T05:46:08.950Z,100215.73
2023-04-21T05:49:36.904Z,100215.20
2023-04-21T05:52:45.223Z,100214.30
2023-04-21T05:55:54.013Z,100213.08
2023-04-21T05:58:43.016Z,100212.30
2023-04-21T06:01:53.112Z,100214.30
2023-04-21T06:04:24.534Z,100212.08
2023-04-21T06:07:52.031Z,100210.59
2023-04-21T06:11:07.707Z,100209.63
2023-04-21T06:14:12.057Z,100208.60
2023-04-21T06:17:01.012Z,100211.64
2023-04-21T06:19:51.109Z,100209.19
2023-04-21T06:23:01.184Z,100211.98
2023-04-21T06:26:11.076Z,100209.95
2023-04-21T06:29:00.671Z,100208.61
2023-04-21T06:31:50.533Z,100210.15
2023-04-21T06:35:02.437Z,100210.82
2023-04-21T06:38:14.542Z,100210.82
2023-04-21T06:41:38.059Z,100214.67
2023-04-21T06:44:30.403Z,100214.67
2023-04-21T06:47:23.293Z,100217.41
2023-04-21T06:49:55.895Z,100218.84
2023-04-21T06:53:04.905Z,100222.30
2023-04-21T06:56:00.979Z,100218.67
2023-04-21T06:58:30.643Z,100218.28
2023-04-21T07:01:15.079Z,100222.17
2023-04-21T07:04:24.025Z,100218.70
2023-04-21T07:07:12.107Z,100225.16
2023-04-21T07:09:49.638Z,100225.82
2023-04-21T07:12:18.057Z,100219.75
2023-04-21T07:15:10.455Z,100219.72
2023-04-21T07:17:59.054Z,100217.91
2023-04-21T07:20:48.421Z,100215.55
2023-04-21T07:23:36.470Z,100212.94
2023-04-21T07:26:44.576Z,100218.00
2023-04-21T07:30:00.811Z,100219.59
2023-04-21T07:32:49.399Z,100219.02
2023-04-21T07:35:40.229Z,100217.23
2023-04-21T07:38:32.394Z,100221.04
2023-04-21T07:41:22.939Z,100219.64
2023-04-21T07:44:50.971Z,100222.04
2023-04-21T07:47:42.065Z,100221.28
2023-04-21T07:50:15.241Z,100215.85
2023-04-21T07:53:18.958Z,100218.25
2023-04-21T07:56:09.264Z,100221.05
2023-04-21T07:58:43.488Z,100222.15
2023-04-21T08:01:52.375Z,100228.00
2023-04-21T08:04:20.793Z,100228.66
2023-04-21T08:06:51.546Z,100226.38
2023-04-21T08:09:41.015Z,100222.05
2023-04-21T08:12:53.302Z,100221.67
2023-04-21T08:15:40.140Z,100221.84
2023-04-21T08:18:43.929Z,100221.15
2023-04-21T08:21:30.757Z,100223.31
2023-04-21T08:24:03.129Z,100220.98
2023-04-21T08:27:14.819Z,100216.71
2023-04-21T08:30:04.709Z,100219.95
2023-04-21T08:32:54.647Z,100223.79
2023-04-21T08:36:07.298Z,100221.32
2023-04-21T08:39:00.384Z,100221.73
2023-04-21T08:42:08.508Z,100224.05
2023-04-21T08:44:37.585Z,100223.39
2023-04-21T08:47:26.158Z,100225.48
2023-04-21T08:50:00.760Z,100225.91
2023-04-21T08:52:31.905Z,100225.35
2023-04-21T08:55:21.000Z,100226.96
2023-04-21T08:58:30.656Z,100218.55
2023-04-21T09:01:22.783Z,100220.98
2023-04-21T09:04:51.339Z,100219.38
2023-04-21T09:07:22.089Z,100222.45
2023-04-21T09:10:11.215Z,100229.75
2023-04-21T09:13:20.434Z,100226.93
2023-04-21T09:16:20.398Z,100225.21
2023-04-21T09:18:59.018Z,100224.15
2023-04-21T09:21:58.919Z,100225.65
2023-04-21T09:24:30.804Z,100219.75
2023-04-21T09:27:54.599Z,100222.77
2023-04-21T09:30:38.853Z,100220.00
2023-04-21T09:34:06.990Z,100220.79
2023-04-21T09:36:35.748Z,100216.48
2023-04-21T09:39:34.336Z,100214.96
2023-04-21T09:42:20.573Z,100215.60
2023-04-21T09:45:23.711Z,100212.34
2023-04-21T09:48:07.238Z,100213.13
2023-04-21T09:53:15.031Z,100216.02
2023-04-21T09:56:16.070Z,100214.27
2023-04-21T09:58:46.908Z,100219.11
2023-04-21T10:01:37.011Z,100216.43
2023-04-21T10:04:07.116Z,100212.15
2023-04-21T10:06:37.260Z,100209.33
2023-04-21T10:09:05.740Z,100211.00
2023-04-21T10:11:35.238Z,100207.26
2023-04-21T10:14:24.969Z,100205.36
2023-04-21T10:16:55.334Z,100209.91
2023-04-21T10:19:24.540Z,100203.95
2023-04-21T10:21:53.776Z,100205.08
2023-04-21T10:24:29.817Z,100204.88
2023-04-21T10:27:01.928Z,100204.66
2023-04-21T10:32:40.262Z,100208.70
2023-04-21T10:35:09.861Z,100205.11
2023-04-21T10:37:39.024Z,100198.91
2023-04-21T10:40:09.498Z,100196.47
2023-04-21T10:42:39.462Z,100197.48
2023-04-21T10:45:11.638Z,100190.98
2023-04-21T10:47:40.762Z,100186.45
2023-04-21T10:50:17.267Z,100190.05
2023-04-21T10:52:46.323Z,100180.59
2023-04-21T10:55:42.860Z,100184.38
2023-04-21T10:58:12.862Z,100183.35
2023-04-21T11:00:46.921Z,100179.15
2023-04-21T11:03:18.484Z,100177.14
2023-04-21T11:06:27.196Z,100170.98
2023-04-21T11:09:35.735Z,100169.02
2023-04-21T11:12:06.734Z,100176.86
2023-04-21T11:15:16.836Z,100176.15
2023-04-21T11:17:46.479Z,100171.11
2023-04-21T11:20:15.435Z,100175.05
2023-04-21T11:23:07.514Z,100176.38
2023-04-21T11:26:31.847Z,100172.40
2023-04-21T11:29:01.268Z,100169.20
2023-04-21T11:31:51.269Z,100171.65
2023-04-21T11:34:21.575Z,100175.56
2023-04-21T11:36:53.965Z,100170.44
2023-04-21T11:39:25.182Z,100166.55
2023-04-21T11:42:18.175Z,100164.56
2023-04-21T11:44:46.541Z,100165.08
2023-04-21T11:47:14.564Z,100162.88
2023-04-21T11:49:58.148Z,100160.56
2023-04-21T11:52:26.662Z,100158.34
2023-04-21T11:55:06.015Z,100159.80
2023-04-21T11:57:55.034Z,100153.73
2023-04-21T12:01:02.974Z,100149.84
2023-04-21T12:03:31.732Z,100151.38
2023-04-21T12:06:21.148Z,100153.77
2023-04-21T12:08:49.635Z,100148.30
2023-04-21T12:11:20.717Z,100146.95
2023-04-21T12:14:36.420Z,100145.31
2023-04-21T12:17:32.198Z,100141.81
2023-04-21T12:20:02.814Z,100137.11
2023-04-21T12:22:55.717Z,100133.79
2023-04-21T12:25:24.523Z,100138.02
2023-04-21T12:27:53.013Z,100128.34
2023-04-21T12:30:21.776Z,100128.05
2023-04-21T12:32:50.802Z,100124.45
2023-04-21T12:35:23.608Z,100124.29
2023-04-21T12:37:53.115Z,100117.34
2023-04-21T12:40:21.748Z,100122.27
2023-04-21T12:42:50.057Z,100117.50
2023-04-21T12:45:18.063Z,100110.76
2023-04-21T12:47:46.976Z,100115.27
2023-04-21T12:50:15.518Z,100117.73
2023-04-21T12:52:46.894Z,100111.55
2023-04-21T12:55:14.827Z,100115.76
2023-04-21T12:57:42.776Z,100112.23
2023-04-21T13:00:12.625Z,100110.85
2023-04-21T13:02:43.269Z,100107.68
2023-04-21T13:05:14.182Z,100106.56
2023-04-21T13:07:42.176Z,100104.52
2023-04-21T13:10:10.307Z,100100.82
2023-04-21T13:12:39.237Z,100098.73
2023-04-21T13:15:10.219Z,100098.08
2023-04-21T13:17:38.134Z,100095.91
2023-04-21T13:20:06.783Z,100099.83
2023-04-21T13:22:34.809Z,100099.71
2023-04-21T13:25:03.132Z,100100.92
2023-04-21T13:27:43.039Z,100096.40
2023-04-21T13:30:11.495Z,100093.27
2023-04-21T13:32:41.942Z,100093.05
2023-04-21T13:35:10.122Z,100093.95
2023-04-21T13:38:38.202Z,100091.52
2023-04-21T13:41:06.686Z,100092.40
2023-04-21T13:43:50.599Z,100086.64
2023-04-21T13:46:19.271Z,100090.13
2023-04-21T13:48:48.278Z,100086.55
2023-04-21T13:51:17.485Z,100084.96
2023-04-21T13:53:47.983Z,100080.59
2023-04-21T13:56:18.598Z,100083.64
2023-04-21T13:58:47.743Z,100083.41
2023-04-21T14:01:39.698Z,100076.31
2023-04-21T14:04:08.693Z,100080.52
2023-04-21T14:06:38.391Z,100075.90
2023-04-21T14:09:06.604Z,100074.51
2023-04-21T14:11:39.965Z,100071.42
2023-04-21T14:14:37.884Z,100070.76
2023-04-21T14:17:08.219Z,100068.27
2023-04-21T14:19:40.264Z,100060.94
2023-04-21T14:22:11.209Z,100057.70
2023-04-21T14:24:41.485Z,100058.30
2023-04-21T14:27:12.645Z,100055.33
2023-04-21T14:29:58.672Z,100054.19
2023-04-21T14:32:42.105Z,100053.95
2023-04-21T14:35:50.312Z,100051.88
2023-04-21T14:38:26.751Z,100051.77
2023-04-21T14:41:16.944Z,100053.10
2023-04-21T14:44:05.725Z,100050.15
2023-04-21T14:46:34.600Z,100049.82
2023-04-21T14:49:04.634Z,100047.90
2023-04-21T14:52:14.912Z,100044.30
2023-04-21T14:54:43.919Z,100044.87
2023-04-21T14:57:56.677Z,100042.64
2023-04-21T15:00:45.013Z,100046.45
2023-04-21T15:04:03.081Z,100041.94
2023-04-21T15:07:11.727Z,100034.86
2023-04-21T15:10:39.802Z,100036.46
2023-04-21T15:14:03.472Z,100040.86
2023-04-21T15:17:31.928Z,100038.23
2023-04-21T15:20:43.126Z,100038.16
2023-04-21T15:23:55.931Z,100036.86
2023-04-21T15:27:23.979Z,100035.50
2023-04-21T15:30:52.234Z,100034.16
2023-04-21T15:34:01.150Z,100037.76
2023-04-21T15:37:29.082Z,100037.63
2023-04-21T15:40:49.428Z,100038.23
2023-04-21T15:43:45.796Z,100036.04
2023-04-21T15:47:02.663Z,100036.15
2023-04-21T15:50:07.115Z,100038.60
2023-04-21T15:53:35.141Z,100037.46
2023-04-21T15:57:03.026Z,100037.55
2023-04-21T15:59:52.077Z,100031.73
2023-04-21T16:03:00.433Z,100028.66
2023-04-21T16:06:09.180Z,100027.69
2023-04-21T16:09:09.637Z,100027.09
2023-04-21T16:12:37.521Z,100028.48
2023-04-21T16:15:45.484Z,100028.50
2023-04-21T16:19:13.812Z,100030.39
2023-04-21T16:22:22.806Z,100030.98
2023-04-21T16:25:12.222Z,100029.20
2023-04-21T16:28:00.294Z,100029.05
2023-04-21T16:30:48.964Z,100031.71
2023-04-21T16:34:16.840Z,100031.59
2023-04-21T16:37:45.432Z,100032.70
2023-04-21T16:41:13.328Z,100036.86
2023-04-21T16:44:09.540Z,100036.38
2023-04-21T16:47:40.373Z,100036.27
2023-04-21T16:50:45.301Z,100037.61
2023-04-21T16:54:13.258Z,100036.15
2023-04-21T16:57:29.070Z,100037.15
2023-04-21T17:00:37.660Z,100042.67
2023-04-21T17:04:05.586Z,100040.83
2023-04-21T17:07:33.644Z,100043.71
2023-04-21T17:11:01.576Z,100039.50
2023-04-21T17:14:29.824Z,100043.94
2023-04-21T17:17:58.421Z,100048.00
2023-04-21T17:21:26.461Z,100047.84
2023-04-21T17:24:51.579Z,100050.11
2023-04-21T17:28:04.419Z,100051.25
2023-04-21T17:31:15.761Z,100050.05
2023-04-21T17:34:41.573Z,100054.98
2023-04-21T17:37:31.397Z,100053.54
2023-04-21T17:40:40.406Z,100057.76
2023-04-21T17:44:08.536Z,100061.96
2023-04-21T17:47:36.723Z,100056.64
2023-04-21T17:51:04.764Z,100053.00
2023-04-21T17:54:32.918Z,100060.67
2023-04-21T17:58:00.882Z,100061.48
2023-04-21T18:01:29.201Z,100065.17
2023-04-21T18:04:57.355Z,100066.66
2023-04-21T18:08:24.999Z,100067.77
2023-04-21T18:11:40.621Z,100071.07
2023-04-21T18:15:08.936Z,100069.71
2023-04-21T18:18:16.800Z,100071.81
2023-04-21T18:21:45.225Z,100077.32
2023-04-21T18:24:53.315Z,100080.16
2023-04-21T18:28:21.372Z,100078.80
2023-04-21T18:31:49.310Z,100083.33
2023-04-21T18:35:17.439Z,100084.17
2023-04-21T18:38:45.522Z,100086.05
2023-04-21T18:42:13.463Z,100087.39
2023-04-21T18:45:41.292Z,100086.50
2023-04-21T18:49:09.523Z,100086.48
2023-04-21T18:52:37.441Z,100088.45
2023-04-21T18:56:05.462Z,100088.70
2023-04-21T18:59:33.526Z,100089.89
2023-04-21T19:03:01.764Z,100088.57
2023-04-21T19:06:29.688Z,100091.02
2023-04-21T19:09:57.814Z,100090.31
2023-04-21T19:13:25.958Z,100086.54
2023-04-21T19:16:53.744Z,100089.29
2023-04-21T19:19:43.124Z,100085.34
2023-04-21T19:23:11.189Z,100084.02
2023-04-21T19:26:38.967Z,100083.23
2023-04-21T19:30:07.052Z,100088.70
2023-04-21T19:33:35.028Z,100084.04
2023-04-21T19:37:03.225Z,100086.46
2023-04-21T19:40:31.273Z,100085.61
2023-04-21T19:43:59.252Z,100085.45
2023-04-21T19:47:27.004Z,100082.55
2023-04-21T19:50:35.379Z,100081.08
2023-04-21T19:54:11.355Z,100079.27
2023-04-21T19:57:31.058Z,100084.74
2023-04-21T20:00:59.207Z,100083.62
2023-04-21T20:04:27.708Z,100085.90
2023-04-21T20:07:58.056Z,100086.40
2023-04-21T20:11:06.063Z,100086.48
2023-04-21T20:14:33.958Z,100085.33
2023-04-21T20:18:01.928Z,100085.55
2023-04-21T20:21:29.690Z,100085.28
2023-04-21T20:24:57.745Z,100086.59
2023-04-21T20:28:26.089Z,100088.02
2023-04-21T20:31:14.536Z,100086.76
2023-04-21T20:34:42.643Z,100094.61
2023-04-21T20:38:10.652Z,100097.41
2023-04-21T20:41:38.825Z,100099.19
2023-04-21T20:44:47.441Z,100101.33
2023-04-21T20:47:56.652Z,100106.58
2023-04-21T20:51:20.553Z,100104.05
2023-04-21T20:54:48.463Z,100105.73
2023-04-21T20:58:16.485Z,100108.56
2023-04-21T21:01:44.244Z,100105.38
2023-04-21T21:05:12.014Z,100101.98
2023-04-21T21:08:20.831Z,100104.30
2023-04-21T21:11:53.121Z,100101.73
2023-04-21T21:14:51.249Z,100105.55
2023-04-21T21:18:19.140Z,100101.17
2023-04-21T21:21:29.607Z,100098.31
2023-04-21T21:24:57.588Z,100099.67
2023-04-21T21:28:25.475Z,100104.38
2023-04-21T21:31:35.164Z,100104.47
2023-04-21T21:35:02.893Z,100103.88
2023-04-21T21:38:11.697Z,100106.35
2023-04-21T21:41:40.041Z,100105.83
2023-04-21T21:45:07.791Z,100104.46
2023-04-21T21:48:35.774Z,100105.48
2023-04-21T21:55:34.036Z,100108.92
2023-04-21T21:59:01.938Z,100115.41
2023-04-21T22:02:29.669Z,100114.27
2023-04-21T22:05:57.599Z,100116.34
2023-04-21T22:09:26.351Z,100118.81
2023-04-21T22:12:54.315Z,100119.70
2023-04-21T22:16:03.063Z,100119.31
2023-04-21T22:19:14.667Z,100120.63
2023-04-21T22:22:23.455Z,100119.59
2023-04-21T22:25:51.186Z,100119.02
2023-04-21T22:29:19.276Z,100118.38
2023-04-21T22:32:47.277Z,100116.29
2023-04-21T22:36:15.018Z,100115.30
2023-04-21T22:39:43.239Z,100120.44
2023-04-21T22:43:11.214Z,100116.77
2023-04-21T22:46:02.170Z,100113.10
2023-04-21T22:49:30.041Z,100115.48
2023-04-21T22:52:58.050Z,100115.59
2023-04-21T22:56:26.077Z,100119.86
2023-04-21T22:59:54.264Z,100116.84
2023-04-21T23:03:04.176Z,100113.45
2023-04-21T23:06:31.934Z,100110.20
2023-04-21T23:09:59.853Z,100108.05
2023-04-21T23:13:27.965Z,100106.48
2023-04-21T23:16:56.041Z,100109.06
2023-04-21T23:20:04.922Z,100111.86
2023-04-21T23:23:32.879Z,100111.81
2023-04-21T23:27:00.858Z,100112.29
2023-04-21T23:30:28.635Z,100115.53
2023-04-21T23:33:56.405Z,100111.91
2023-04-21T23:37:24.309Z,100113.48
2023-04-21T23:40:52.425Z,100111.41
2023-04-21T23:44:20.297Z,100117.91
2023-04-21T23:47:29.102Z,100112.90
2023-04-21T23:50:57.070Z,100112.61
2023-04-21T23:54:24.685Z,100109.36
2023-04-21T23:57:54.245Z,100111.34
